Map

Track Data

SID SEASON NUMBER BASIN SUBBASIN NAME ISO_TIME NATURE LAT LON WMO_WIND WMO_PRES WMO_AGENCY TRACK_TYPE DIST2LAND LANDFALL IFLAG USA_AGENCY USA_ATCF_ID USA_LAT USA_LON USA_RECORD USA_STATUS USA_WIND USA_PRES USA_SSHS USA_R34_NE USA_R34_SE USA_R34_SW USA_R34_NW USA_R50_NE USA_R50_SE USA_R50_SW USA_R50_NW USA_R64_NE USA_R64_SE USA_R64_SW USA_R64_NW USA_POCI USA_ROCI USA_RMW USA_EYE TOKYO_LAT TOKYO_LON TOKYO_GRADE TOKYO_WIND TOKYO_PRES TOKYO_R50_DIR TOKYO_R50_LONG TOKYO_R50_SHORT TOKYO_R30_DIR TOKYO_R30_LONG TOKYO_R30_SHORT TOKYO_LAND CMA_LAT CMA_LON CMA_CAT CMA_WIND CMA_PRES HKO_LAT HKO_LON HKO_CAT HKO_WIND HKO_PRES NEWDELHI_LAT NEWDELHI_LON NEWDELHI_GRADE NEWDELHI_WIND NEWDELHI_PRES NEWDELHI_CI NEWDELHI_DP NEWDELHI_POCI REUNION_LAT REUNION_LON REUNION_TYPE REUNION_WIND REUNION_PRES REUNION_TNUM REUNION_CI REUNION_RMW REUNION_R34_NE REUNION_R34_SE REUNION_R34_SW REUNION_R34_NW REUNION_R50_NE REUNION_R50_SE REUNION_R50_SW REUNION_R50_NW REUNION_R64_NE REUNION_R64_SE REUNION_R64_SW REUNION_R64_NW BOM_LAT BOM_LON BOM_TYPE BOM_WIND BOM_PRES BOM_TNUM BOM_CI BOM_RMW BOM_R34_NE BOM_R34_SE BOM_R34_SW BOM_R34_NW BOM_R50_NE BOM_R50_SE BOM_R50_SW BOM_R50_NW BOM_R64_NE BOM_R64_SE BOM_R64_SW BOM_R64_NW BOM_ROCI BOM_POCI BOM_EYE BOM_POS_METHOD BOM_PRES_METHOD NADI_LAT NADI_LON NADI_CAT NADI_WIND NADI_PRES WELLINGTON_LAT WELLINGTON_LON WELLINGTON_WIND WELLINGTON_PRES DS824_LAT DS824_LON DS824_STAGE DS824_WIND DS824_PRES TD9636_LAT TD9636_LON TD9636_STAGE TD9636_WIND TD9636_PRES TD9635_LAT TD9635_LON TD9635_WIND TD9635_PRES TD9635_ROCI NEUMANN_LAT NEUMANN_LON NEUMANN_CLASS NEUMANN_WIND NEUMANN_PRES MLC_LAT MLC_LON MLC_CLASS MLC_WIND MLC_PRES USA_GUST BOM_GUST BOM_GUST_PER REUNION_GUST REUNION_GUST_PER USA_SEAHGT USA_SEARAD_NE USA_SEARAD_SE USA_SEARAD_SW USA_SEARAD_NW STORM_SPEED STORM_DIR
1916309N18140 1916 66 WP MM NOT_NAMED 1916-11-04 09:00:00 NR 18.0000 140.000 main 1686 1601 __________O___ -1 18.0000 140.000 7 18 276
1916309N18140 1916 66 WP MM NOT_NAMED 1916-11-04 12:00:00 NR 18.0908 139.051 main 1601 1518 __________P___ -1 18.0908 139.051 7 18 276
1916309N18140 1916 66 WP MM NOT_NAMED 1916-11-04 15:00:00 NR 18.1731 138.141 main 1509 1442 __________P___ -1 18.1731 138.141 7 17 275
1916309N18140 1916 66 WP MM NOT_NAMED 1916-11-04 18:00:00 NR 18.2437 137.311 main 1432 1372 __________P___ -1 18.2437 137.311 7 15 275
1916309N18140 1916 66 WP MM NOT_NAMED 1916-11-04 21:00:00 NR 18.3000 136.600 main 1372 1326 __________O___ -1 18.3000 136.600 7 12 275
1916309N18140 1916 66 WP MM NOT_NAMED 1916-11-05 00:00:00 NR 18.3426 136.033 main 1316 1286 __________P___ -1 18.3426 136.033 7 10 275
1916309N18140 1916 66 WP MM NOT_NAMED 1916-11-05 03:00:00 NR 18.3819 135.567 main 1286 1250 __________P___ -1 18.3819 135.567 7 9 276
1916309N18140 1916 66 WP MM NOT_NAMED 1916-11-05 06:00:00 NR 18.4305 135.142 main 1241 1212 __________P___ -1 18.4305 135.142 7 8 278
1916309N18140 1916 66 WP MM NOT_NAMED 1916-11-05 09:00:00 NR 18.5000 134.700 main 1212 1161 __________O___ -1 18.5000 134.700 7 10 280
1916309N18140 1916 66 WP MM NOT_NAMED 1916-11-05 12:00:00 NR 18.6125 134.093 main 1161 1109 __________P___ -1 18.6125 134.093 7 12 282
1916309N18140 1916 66 WP MM NOT_NAMED 1916-11-05 15:00:00 NR 18.7439 133.468 main 1109 1065 __________P___ -1 18.7439 133.468 7 12 283
1916309N18140 1916 66 WP MM NOT_NAMED 1916-11-05 18:00:00 NR 18.8782 132.884 main 1065 1026 __________P___ -1 18.8782 132.884 7 10 284
1916309N18140 1916 66 WP MM NOT_NAMED 1916-11-05 21:00:00 NR 19.0000 132.400 main 1026 1006 __________O___ -1 19.0000 132.400 7 8 285
1916309N18140 1916 66 WP MM NOT_NAMED 1916-11-06 00:00:00 NR 19.0759 132.108 main 1006 988 __________P___ -1 19.0759 132.108 7 5 287
1916309N18140 1916 66 WP MM NOT_NAMED 1916-11-06 03:00:00 NR 19.1410 131.917 main 988 986 __________P___ -1 19.1410 131.917 7 3 293
1916309N18140 1916 66 WP MM NOT_NAMED 1916-11-06 06:00:00 NR 19.2106 131.767 main 986 976 __________P___ -1 19.2106 131.767 7 3 298
1916309N18140 1916 66 WP MM NOT_NAMED 1916-11-06 09:00:00 NR 19.3000 131.600 main 976 953 __________O___ -1 19.3000 131.600 7 5 296
1916309N18140 1916 66 WP MM NOT_NAMED 1916-11-06 12:00:00 NR 19.4206 131.301 main 953 923 __________P___ -1 19.4206 131.301 7 6 294
1916309N18140 1916 66 WP MM NOT_NAMED 1916-11-06 15:00:00 NR 19.5630 130.978 main 924 894 __________P___ -1 19.5630 130.978 7 7 297
1916309N18140 1916 66 WP MM NOT_NAMED 1916-11-06 18:00:00 NR 19.7238 130.666 main 894 867 __________P___ -1 19.7238 130.666 7 6 302
1916309N18140 1916 66 WP MM NOT_NAMED 1916-11-06 21:00:00 NR 19.9000 130.400 main 867 850 __________O___ -1 19.9000 130.400 7 6 312
1916309N18140 1916 66 WP MM NOT_NAMED 1916-11-07 00:00:00 NR 20.0894 130.228 main 850 842 __________P___ -1 20.0894 130.228 7 5 325
1916309N18140 1916 66 WP MM NOT_NAMED 1916-11-07 03:00:00 NR 20.2921 130.105 main 845 837 __________P___ -1 20.2921 130.105 7 5 333
1916309N18140 1916 66 WP MM NOT_NAMED 1916-11-07 06:00:00 NR 20.4988 130.003 main 840 833 __________P___ -1 20.4988 130.003 7 5 335
1916309N18140 1916 66 WP MM NOT_NAMED 1916-11-07 09:00:00 NR 20.7000 129.900 main 836 820 __________O___ -1 20.7000 129.900 7 4 316
1916309N18140 1916 66 WP MM NOT_NAMED 1916-11-07 12:00:00 NR 20.7970 129.697 main 820 804 __________P___ -1 20.7970 129.697 7 4 298
1916309N18140 1916 66 WP MM NOT_NAMED 1916-11-07 15:00:00 NR 20.9002 129.496 main 804 794 __________P___ -1 20.9002 129.496 7 4 311
1916309N18140 1916 66 WP MM NOT_NAMED 1916-11-07 18:00:00 NR 21.0782 129.348 main 792 792 __________P___ -1 21.0782 129.348 7 5 340
1916309N18140 1916 66 WP MM NOT_NAMED 1916-11-07 21:00:00 NR 21.4000 129.300 main 804 804 __________O___ -1 21.4000 129.300 7 9 0
1916309N18140 1916 66 WP MM NOT_NAMED 1916-11-08 00:00:00 NR 21.9892 129.368 main 815 799 __________P___ -1 21.9892 129.368 7 13 10
1916309N18140 1916 66 WP MM NOT_NAMED 1916-11-08 03:00:00 NR 22.7167 129.547 main 799 799 __________P___ -1 22.7167 129.547 7 16 16
1916309N18140 1916 66 WP MM NOT_NAMED 1916-11-08 06:00:00 NR 23.4859 129.828 main 807 760 __________P___ -1 23.4859 129.828 7 16 22
1916309N18140 1916 66 WP MM NOT_NAMED 1916-11-08 09:00:00 NR 24.2000 130.200 main 760 703 __________O___ -1 24.2000 130.200 7 15 32
1916309N18140 1916 66 WP MM NOT_NAMED 1916-11-08 12:00:00 NR 24.7558 130.686 main 692 649 __________P___ -1 24.7558 130.686 7 14 43
1916309N18140 1916 66 WP MM NOT_NAMED 1916-11-08 15:00:00 NR 25.2372 131.248 main 649 610 __________P___ -1 25.2372 131.248 7 14 49
1916309N18140 1916 66 WP MM NOT_NAMED 1916-11-08 18:00:00 NR 25.6497 131.811 main 612 579 __________P___ -1 25.6497 131.811 7 12 51
1916309N18140 1916 66 WP MM NOT_NAMED 1916-11-08 21:00:00 NR 26.0000 132.300 main 579 556 __________O___ -1 26.0000 132.300 7 10 47
1916309N18140 1916 66 WP MM NOT_NAMED 1916-11-09 00:00:00 NR 26.3225 132.609 main 556 531 __________P___ -1 26.3225 132.609 7 8 39
1916309N18140 1916 66 WP MM NOT_NAMED 1916-11-09 03:00:00 NR 26.5885 132.835 main 531 519 __________P___ -1 26.5885 132.835 7 6 37
1916309N18140 1916 66 WP MM NOT_NAMED 1916-11-09 06:00:00 NR 26.8103 133.018 main 519 503 __________P___ -1 26.8103 133.018 7 5 38
1916309N18140 1916 66 WP MM NOT_NAMED 1916-11-09 09:00:00 NR 27.0000 133.200 main 508 503 __________O___ -1 27.0000 133.200 4 4 47
1916309N18140 1916 66 WP MM NOT_NAMED 1916-11-09 12:00:00 NR 27.1084 133.377 main 508 503 __________P___ -1 27.1084 133.377 4 4 59
1916309N18140 1916 66 WP MM NOT_NAMED 1916-11-09 15:00:00 NR 27.2003 133.571 main 508 505 __________P___ -1 27.2003 133.571 4 5 60
1916309N18140 1916 66 WP MM NOT_NAMED 1916-11-09 18:00:00 NR 27.3422 133.829 main 510 497 __________P___ -1 27.3422 133.829 4 7 54
1916309N18140 1916 66 WP MM NOT_NAMED 1916-11-09 21:00:00 NR 27.6000 134.200 main 503 489 __________O___ -1 27.6000 134.200 4 11 49
1916309N18140 1916 66 WP MM NOT_NAMED 1916-11-10 00:00:00 NR 28.0581 134.746 main 486 486 __________P___ -1 28.0581 134.746 4 15 46
1916309N18140 1916 66 WP MM NOT_NAMED 1916-11-10 03:00:00 NR 28.6316 135.412 main 495 468 __________P___ -1 28.6316 135.412 4 17 46
1916309N18140 1916 66 WP MM NOT_NAMED 1916-11-10 06:00:00 NR 29.2641 136.147 main 458 404 __________P___ -1 29.2641 136.147 4 18 46
1916309N18140 1916 66 WP MM NOT_NAMED 1916-11-10 09:00:00 NR 29.9000 136.900 main 404 377 __________O___ -1 29.9000 136.900 4 16 47
1916309N18140 1916 66 WP MM NOT_NAMED 1916-11-10 12:00:00 NR 30.3681 137.528 main 370 360 __________P___ -1 30.3681 137.528 4 14 49
1916309N18140 1916 66 WP MM NOT_NAMED 1916-11-10 15:00:00 NR 30.8439 138.170 main 367 356 __________P___ -1 30.8439 138.170 4 16 48
1916309N18140 1916 66 WP MM NOT_NAMED 1916-11-10 18:00:00 NR 31.3980 138.876 main 356 288 __________P___ -1 31.3980 138.876 4 18 46
1916309N18140 1916 66 WP MM NOT_NAMED 1916-11-10 21:00:00 NR 32.1000 139.700 main 290 224 __________O___ -1 32.1000 139.700 4 22 44
1916309N18140 1916 66 WP MM NOT_NAMED 1916-11-11 00:00:00 NR 33.0173 140.713 main 224 178 __________P___ -1 33.0173 140.713 4 27 42
1916309N18140 1916 66 WP MM NOT_NAMED 1916-11-11 03:00:00 NR 34.0792 141.863 main 183 182 __________P___ -1 34.0792 141.863 4 30 42
1916309N18140 1916 66 WP MM NOT_NAMED 1916-11-11 06:00:00 NR 35.2259 143.108 main 206 206 __________P___ -1 35.2259 143.108 4 31 42
1916309N18140 1916 66 WP MM NOT_NAMED 1916-11-11 09:00:00 NR 36.4000 144.400 main 309 309 __________O___ -1 36.4000 144.400 7 31 42
1916309N18140 1916 66 WP MM NOT_NAMED 1916-11-11 12:00:00 NR 37.5565 145.700 main 373 373 __________P___ -1 37.5565 145.700 7 31 42
1916309N18140 1916 66 WP MM NOT_NAMED 1916-11-11 15:00:00 NR 38.6902 147.009 main 430 430 __________P___ -1 38.6902 147.009 7 30 42
1916309N18140 1916 66 WP MM NOT_NAMED 1916-11-11 18:00:00 NR 39.8042 148.338 main 443 423 __________P___ -1 39.8042 148.338 7 30 43
1916309N18140 1916 66 WP MM NOT_NAMED 1916-11-11 21:00:00 NR 40.9000 149.700 main 429 __________O___ -1 40.9000 149.700 7 30 43

Digital Typhoon Data and Search

About IBTrACS Database

This database is a web-friendly format of International Best Track Archive for Climate Stewardship (IBTrACS), a global best track data archive curated by NOAA dating back to 1842.

Updated: 2021-10-19